Light Drizzle Current Weather (METAR) For Innsbruck - Kranebitten Airport

All times on the weather descriptions are local

Observed at 02:20 - (29 mins ago)

Light Drizzle

5°C

Light Drizzle
Clouds: Scattered Clouds at 5,000ft, Broken Clouds at 6,000ft
Wind: 240° at 13 knots, varying from 200° to 270
Visibility: Greater than 10km
QNH: 1027
Dew Point: 0°C
Runway in Use: Runway 26

Sunrise Today: 07:56
Sunset Today: 16:28

Forecast Weather (TAF) For Innsbruck - Kranebitten Airport

Issued at 01:00 - (9 days 22 hrs ago)


Runway in Use: Unable to determine, wind is clam

Forecast valid until 01:00 on Wednesday

METAR/TAF RAW METAR / TAF

LOWI 210120Z AUTO 24013KT 200V270 9999 -DZ SCT050 BKN060 05/M00 Q1027

Weather Widget

Put weather from any of our airports on your website with our weather widget.

Find Another Search

Airport Search


Please Wait Please Wait - Loading
Close
Close

Login

Username:

Password:

Remember Me:

Remember me on this computer

Forgotten your password? Get a reset password sent to your registered e-mail address

Close

User Private Message

Subject:

Message: